Time;durP1;ratioP1;P1;durP2;ratioP2;P2;SDS_P1;SDS_P2;PMS_P1;PMS_P2;Temp;Humidity;BMP_temperature;BMP_pressure;BME280_temperature;BME280_humidity;BME280_pressure;Samples;Min_cycle;Max_cycle;Signal;HPM_P1;HPM_P2
2022/08/30 00:02:00;;;;;;;3.93;3.53;;;15.50;99.90;;;;;;5100572;28;20984;-81
2022/08/30 00:04:27;;;;;;;5.13;2.70;;;15.40;99.90;;;;;;5102188;28;20473;-82
2022/08/30 00:06:54;;;;;;;2.80;2.50;;;15.50;99.90;;;;;;5100801;28;20476;-81
2022/08/30 00:09:22;;;;;;;6.60;3.30;;;15.50;99.90;;;;;;5103916;27;20526;-81
2022/08/30 00:11:50;;;;;;;6.57;3.37;;;15.40;99.90;;;;;;5105315;27;20548;-83
2022/08/30 00:14:19;;;;;;;3.27;2.17;;;15.40;99.90;;;;;;5107026;27;20460;-82
2022/08/30 00:16:46;;;;;;;3.87;2.83;;;15.30;99.90;;;;;;5100812;27;20495;-81
2022/08/30 00:19:13;;;;;;;4.50;2.90;;;15.30;99.90;;;;;;5099912;27;20969;-84
2022/08/30 00:21:40;;;;;;;3.70;2.80;;;15.30;99.90;;;;;;5103442;27;20465;-81
2022/08/30 00:24:07;;;;;;;5.33;2.43;;;15.30;99.90;;;;;;5104036;27;20476;-81
2022/08/30 00:26:36;;;;;;;3.30;3.00;;;15.40;99.90;;;;;;5099948;28;21113;-81
2022/08/30 00:29:03;;;;;;;3.13;2.73;;;15.40;99.90;;;;;;5102079;28;20519;-84
2022/08/30 00:31:30;;;;;;;7.70;3.90;;;15.40;99.90;;;;;;5102087;27;20953;-82
2022/08/30 00:33:57;;;;;;;5.23;3.37;;;15.30;99.90;;;;;;5101615;27;20583;-82
2022/08/30 00:36:24;;;;;;;3.77;2.00;;;15.30;99.90;;;;;;5099405;27;20550;-82
2022/08/30 00:38:51;;;;;;;2.97;2.57;;;15.30;99.90;;;;;;5099962;28;20470;-83
2022/08/30 00:41:17;;;;;;;4.33;3.10;;;15.30;99.90;;;;;;5102532;27;20474;-85
2022/08/30 00:43:46;;;;;;;3.63;3.13;;;15.20;99.90;;;;;;5099152;27;20481;-82
2022/08/30 00:46:13;;;;;;;2.43;2.23;;;15.10;99.90;;;;;;5101268;28;20472;-82
2022/08/30 00:48:44;;;;;;;2.60;2.40;;;15.00;99.90;;;;;;5103757;28;20502;-82
2022/08/30 00:51:14;;;;;;;2.80;2.60;;;15.00;99.90;;;;;;5104882;27;20601;-82
2022/08/30 00:53:44;;;;;;;3.30;2.60;;;14.90;99.90;;;;;;5106537;27;20488;-82
2022/08/30 00:56:12;;;;;;;3.73;3.37;;;15.30;99.90;;;;;;5103445;27;20488;-81
2022/08/30 00:58:42;;;;;;;3.57;2.67;;;15.20;99.90;;;;;;5101281;28;20468;-80
2022/08/30 01:01:11;;;;;;;5.67;3.23;;;15.10;99.90;;;;;;5103788;27;20526;-82
2022/08/30 01:03:39;;;;;;;4.77;3.13;;;15.10;99.90;;;;;;5104036;27;20464;-80
2022/08/30 01:06:07;;;;;;;1.80;1.60;;;15.10;99.90;;;;;;5105754;28;21455;-81
2022/08/30 01:08:35;;;;;;;2.93;2.37;;;15.10;99.90;;;;;;5100899;28;20537;-80
2022/08/30 01:11:03;;;;;;;3.03;2.60;;;15.10;99.90;;;;;;5101611;27;20552;-83
2022/08/30 01:13:33;;;;;;;5.93;2.63;;;15.10;99.90;;;;;;5100646;27;20914;-81
2022/08/30 01:16:01;;;;;;;3.50;3.20;;;15.10;99.90;;;;;;5104434;27;21408;-81
2022/08/30 01:18:30;;;;;;;3.70;3.00;;;15.00;99.90;;;;;;5103887;28;20487;-80
2022/08/30 01:21:06;;;;;;;3.60;2.30;;;15.00;99.90;;;;;;5098900;28;20464;-81
2022/08/30 01:23:36;;;;;;;6.17;2.70;;;15.00;99.90;;;;;;5107357;27;20874;-80
2022/08/30 01:26:05;;;;;;;4.40;2.50;;;14.90;99.90;;;;;;5101585;27;20568;-81
2022/08/30 01:28:34;;;;;;;6.40;4.30;;;14.90;99.90;;;;;;5103601;28;20550;-80
2022/08/30 01:31:01;;;;;;;3.53;2.53;;;14.90;99.90;;;;;;5102976;27;20482;-80
2022/08/30 01:33:28;;;;;;;4.93;2.73;;;15.00;99.90;;;;;;5104438;28;20547;-80
2022/08/30 01:35:58;;;;;;;4.53;2.67;;;15.00;99.90;;;;;;5099304;27;20464;-80
2022/08/30 01:38:28;;;;;;;3.40;3.10;;;14.90;99.90;;;;;;5101776;27;20610;-82
2022/08/30 01:41:07;;;;;;;4.30;2.73;;;14.80;99.90;;;;;;5103519;27;20459;-84
2022/08/30 01:43:35;;;;;;;4.70;1.90;;;14.70;99.90;;;;;;5100755;28;20489;-81
2022/08/30 01:46:02;;;;;;;3.23;2.53;;;14.80;99.90;;;;;;5102557;28;20472;-81
2022/08/30 01:48:29;;;;;;;3.80;3.07;;;15.00;99.90;;;;;;5101376;27;20467;-83
2022/08/30 01:50:56;;;;;;;3.27;2.27;;;14.90;99.90;;;;;;5100786;27;20460;-83
2022/08/30 01:53:23;;;;;;;4.43;3.03;;;14.80;99.90;;;;;;5104770;28;20923;-81
2022/08/30 01:55:50;;;;;;;4.60;3.70;;;14.80;99.90;;;;;;5103161;27;20465;-81
2022/08/30 01:58:18;;;;;;;4.03;3.30;;;14.80;99.90;;;;;;5105075;28;20459;-80
2022/08/30 02:00:45;;;;;;;1.87;1.73;;;14.80;99.90;;;;;;5102088;28;20468;-79
2022/08/30 02:03:12;;;;;;;5.07;3.83;;;14.70;99.90;;;;;;5104159;28;20492;-81
2022/08/30 02:05:39;;;;;;;2.70;2.47;;;14.70;99.90;;;;;;5097055;27;20466;-85
2022/08/30 02:08:06;;;;;;;5.53;4.23;;;14.80;99.90;;;;;;5100910;27;20551;-83
2022/08/30 02:10:34;;;;;;;3.70;2.90;;;14.90;99.90;;;;;;5103838;28;20864;-81
2022/08/30 02:13:00;;;;;;;3.30;2.80;;;14.90;99.90;;;;;;5104788;27;20483;-81
2022/08/30 02:15:29;;;;;;;3.57;3.27;;;14.90;99.90;;;;;;5099613;27;20511;-81
2022/08/30 02:17:56;;;;;;;4.67;3.00;;;14.90;99.90;;;;;;5104819;27;20481;-80
2022/08/30 02:20:23;;;;;;;3.37;3.07;;;14.70;99.90;;;;;;5097121;27;20496;-80
2022/08/30 02:22:50;;;;;;;3.33;2.97;;;14.70;99.90;;;;;;5100735;28;20470;-81
2022/08/30 02:25:17;;;;;;;5.07;2.73;;;14.80;99.90;;;;;;5101759;28;20480;-80
2022/08/30 02:27:44;;;;;;;3.27;2.87;;;14.70;99.90;;;;;;5091510;27;20501;-81
2022/08/30 02:30:12;;;;;;;4.57;4.10;;;14.70;99.90;;;;;;5103955;28;20455;-85
2022/08/30 02:32:41;;;;;;;4.83;3.97;;;14.70;99.90;;;;;;5103137;28;20465;-81
2022/08/30 02:35:09;;;;;;;5.10;3.37;;;14.50;99.90;;;;;;5102378;28;20470;-80
2022/08/30 02:37:36;;;;;;;3.57;2.33;;;14.50;99.90;;;;;;5106121;27;20535;-80
2022/08/30 02:40:04;;;;;;;3.20;2.37;;;14.60;99.90;;;;;;5101142;27;20461;-81
2022/08/30 02:42:31;;;;;;;2.47;2.23;;;14.60;99.90;;;;;;5097294;28;20517;-80
2022/08/30 02:44:59;;;;;;;3.60;3.07;;;14.70;99.90;;;;;;5093538;27;20565;-80
2022/08/30 02:47:26;;;;;;;3.03;2.73;;;14.80;99.90;;;;;;5110636;27;20486;-79
2022/08/30 02:49:54;;;;;;;4.30;3.17;;;14.80;99.90;;;;;;5119440;28;20458;-81
2022/08/30 02:52:21;;;;;;;3.90;3.13;;;14.60;99.90;;;;;;5109697;27;20872;-81
2022/08/30 02:54:49;;;;;;;2.67;2.20;;;14.60;99.90;;;;;;5110709;27;20485;-80
2022/08/30 02:57:16;;;;;;;2.53;2.30;;;14.60;99.90;;;;;;5105389;27;20469;-81
2022/08/30 02:59:44;;;;;;;3.00;2.80;;;14.60;99.90;;;;;;5103775;28;20471;-80
2022/08/30 03:02:12;;;;;;;2.93;2.20;;;14.50;99.90;;;;;;5099088;28;20464;-83
2022/08/30 03:04:39;;;;;;;4.37;2.57;;;14.50;99.90;;;;;;5100751;28;20469;-82
2022/08/30 03:07:08;;;;;;;2.83;2.37;;;14.40;99.90;;;;;;5096973;28;20459;-81
2022/08/30 03:09:35;;;;;;;4.20;3.07;;;14.30;99.90;;;;;;5098674;28;20890;-81
2022/08/30 03:12:04;;;;;;;2.97;2.70;;;14.30;99.90;;;;;;5103025;28;20482;-82
2022/08/30 03:14:32;;;;;;;4.70;2.73;;;14.30;99.90;;;;;;5104013;27;20483;-81
2022/08/30 03:16:59;;;;;;;4.30;3.43;;;14.20;99.90;;;;;;5100865;28;20477;-81
2022/08/30 03:19:25;;;;;;;1.97;1.83;;;14.20;99.90;;;;;;5098824;27;20465;-80
2022/08/30 03:21:53;;;;;;;2.57;2.37;;;14.10;99.90;;;;;;5102363;27;20552;-82
2022/08/30 03:24:21;;;;;;;3.00;2.30;;;14.20;99.90;;;;;;5097507;27;20469;-82
2022/08/30 03:26:48;;;;;;;2.50;2.30;;;14.10;99.90;;;;;;5099586;28;20481;-78
2022/08/30 03:29:15;;;;;;;5.00;2.60;;;14.10;99.90;;;;;;5100126;28;20465;-80
2022/08/30 03:31:42;;;;;;;3.70;2.77;;;14.00;99.90;;;;;;5096804;27;20477;-80
2022/08/30 03:34:10;;;;;;;2.97;2.67;;;14.00;99.90;;;;;;5098009;28;20478;-80
2022/08/30 03:36:38;;;;;;;2.80;2.60;;;13.90;99.90;;;;;;5097327;28;21037;-80
2022/08/30 03:39:05;;;;;;;6.73;3.20;;;14.00;99.90;;;;;;5094537;28;20578;-80
2022/08/30 03:41:34;;;;;;;5.83;4.10;;;14.10;99.90;;;;;;5099530;27;20545;-80
2022/08/30 03:44:02;;;;;;;3.20;1.80;;;14.10;99.90;;;;;;5103591;28;20587;-80
2022/08/30 03:46:29;;;;;;;3.57;2.57;;;14.10;99.90;;;;;;5098192;27;20482;-82
2022/08/30 03:48:56;;;;;;;4.70;2.87;;;14.20;99.90;;;;;;5102197;28;21001;-80
2022/08/30 03:51:24;;;;;;;2.63;2.43;;;14.10;99.90;;;;;;5094872;28;20526;-80
2022/08/30 03:53:51;;;;;;;3.30;2.53;;;14.10;99.90;;;;;;5104894;27;20493;-83
2022/08/30 03:56:18;;;;;;;4.63;3.40;;;14.20;99.90;;;;;;5103209;28;20508;-81
2022/08/30 03:58:47;;;;;;;2.93;2.50;;;14.10;99.90;;;;;;5095802;28;21017;-83
2022/08/30 04:01:14;;;;;;;2.70;1.63;;;14.10;99.90;;;;;;5094656;28;21259;-81
2022/08/30 04:03:41;;;;;;;3.57;2.50;;;14.10;99.90;;;;;;5101872;28;20463;-82
2022/08/30 04:06:08;;;;;;;4.77;2.33;;;14.10;99.90;;;;;;5095413;28;20918;-81
2022/08/30 04:08:35;;;;;;;2.80;2.60;;;14.10;99.90;;;;;;5098066;28;20955;-83
2022/08/30 04:11:02;;;;;;;3.80;2.40;;;14.00;99.90;;;;;;5098218;28;20458;-80
2022/08/30 04:13:30;;;;;;;6.50;2.60;;;14.00;99.90;;;;;;5088815;28;20557;-80
2022/08/30 04:15:58;;;;;;;3.87;2.60;;;13.90;99.90;;;;;;5103083;28;20455;-80
2022/08/30 04:18:25;;;;;;;5.40;3.23;;;14.00;99.90;;;;;;5099266;28;20455;-80
2022/08/30 04:20:53;;;;;;;2.07;1.80;;;13.90;99.90;;;;;;5097642;28;20476;-80
2022/08/30 04:23:20;;;;;;;2.47;2.03;;;13.80;99.90;;;;;;5103574;28;20469;-80
2022/08/30 04:25:47;;;;;;;5.40;2.30;;;13.70;99.90;;;;;;5098833;28;20481;-80
2022/08/30 04:28:14;;;;;;;6.50;3.77;;;13.70;99.90;;;;;;5099637;28;20466;-80
2022/08/30 04:30:43;;;;;;;12.93;2.37;;;13.70;99.90;;;;;;5100242;28;20463;-83
2022/08/30 04:33:13;;;;;;;5.00;2.23;;;13.70;99.90;;;;;;5096394;28;21022;-83
2022/08/30 04:35:42;;;;;;;4.53;3.30;;;13.70;99.90;;;;;;5106032;28;20886;-80
2022/08/30 04:38:09;;;;;;;2.93;2.10;;;13.80;99.90;;;;;;5098911;28;21073;-80
2022/08/30 04:40:37;;;;;;;3.27;2.40;;;13.90;99.90;;;;;;5102630;28;20507;-81
2022/08/30 04:43:04;;;;;;;4.23;2.50;;;13.90;99.90;;;;;;5096208;28;20466;-80
2022/08/30 04:45:31;;;;;;;3.87;2.30;;;14.00;99.90;;;;;;5094600;28;20551;-80
2022/08/30 04:47:58;;;;;;;2.90;2.70;;;13.90;99.90;;;;;;5102159;28;20555;-80
2022/08/30 04:50:26;;;;;;;2.30;1.97;;;14.00;99.90;;;;;;5099922;28;21121;-80
2022/08/30 04:52:53;;;;;;;4.93;2.97;;;14.10;99.90;;;;;;5095898;28;20463;-82
2022/08/30 04:55:23;;;;;;;3.00;2.20;;;14.10;99.90;;;;;;5105181;28;20498;-82
2022/08/30 04:57:50;;;;;;;7.30;2.00;;;14.10;99.90;;;;;;5106705;28;20621;-82
2022/08/30 05:00:19;;;;;;;5.90;3.20;;;14.10;99.90;;;;;;5106743;28;20462;-84
2022/08/30 05:02:46;;;;;;;3.77;2.23;;;14.20;99.90;;;;;;5098904;28;20680;-81
2022/08/30 05:07:59;;;;;;;4.70;3.27;;;14.40;99.90;;;;;;5103783;28;20452;-81
2022/08/30 05:10:27;;;;;;;3.57;2.57;;;14.40;99.90;;;;;;5095809;28;20563;-83
2022/08/30 05:12:55;;;;;;;3.60;2.70;;;14.50;99.90;;;;;;5103358;28;20463;-80
2022/08/30 05:15:22;;;;;;;5.47;3.43;;;14.40;99.90;;;;;;5102830;27;20489;-81
2022/08/30 05:17:52;;;;;;;3.53;2.13;;;14.50;99.90;;;;;;5104250;28;20458;-80
2022/08/30 05:20:20;;;;;;;3.40;2.47;;;14.70;99.90;;;;;;5104998;28;20451;-79
2022/08/30 05:22:51;;;;;;;4.07;3.53;;;14.70;99.90;;;;;;5096989;28;20467;-81
2022/08/30 05:25:25;;;;;;;6.63;3.20;;;14.80;99.90;;;;;;5094876;28;20558;-85
2022/08/30 05:27:52;;;;;;;5.63;3.03;;;14.80;99.90;;;;;;5098123;28;21094;-82
2022/08/30 05:30:20;;;;;;;3.37;3.07;;;14.80;99.90;;;;;;5100581;28;20493;-81
2022/08/30 05:32:47;;;;;;;4.03;2.53;;;14.90;99.90;;;;;;5097847;28;20523;-83
2022/08/30 05:35:16;;;;;;;3.00;2.70;;;14.90;99.90;;;;;;5106005;28;20483;-81
2022/08/30 05:37:43;;;;;;;3.50;2.40;;;14.90;99.90;;;;;;5104242;27;20716;-82
2022/08/30 05:40:12;;;;;;;7.40;3.17;;;15.00;99.90;;;;;;5104625;27;20469;-81
2022/08/30 05:42:41;;;;;;;2.80;2.53;;;15.00;99.90;;;;;;5106784;27;20479;-80
2022/08/30 05:45:09;;;;;;;4.10;3.27;;;15.00;99.90;;;;;;5101357;28;20542;-81
2022/08/30 05:47:37;;;;;;;4.47;3.20;;;15.10;99.90;;;;;;5102394;27;20471;-84
2022/08/30 05:50:06;;;;;;;5.10;3.60;;;15.10;99.90;;;;;;5104482;28;20542;-84
2022/08/30 05:52:35;;;;;;;3.83;2.87;;;15.10;99.90;;;;;;5099672;27;20569;-81
2022/08/30 05:55:03;;;;;;;4.27;3.70;;;15.20;99.90;;;;;;5100565;28;20478;-83
2022/08/30 05:57:33;;;;;;;3.60;3.30;;;15.40;99.90;;;;;;5102030;27;20563;-81
2022/08/30 06:00:02;;;;;;;5.43;2.80;;;15.50;99.90;;;;;;5107185;28;20702;-84
2022/08/30 06:02:30;;;;;;;4.97;3.07;;;15.70;99.90;;;;;;5100926;27;20501;-84
2022/08/30 06:04:56;;;;;;;4.93;2.33;;;15.80;99.90;;;;;;5101854;27;20473;-81
2022/08/30 06:07:23;;;;;;;4.20;2.60;;;15.80;99.90;;;;;;5099305;28;20474;-81
2022/08/30 06:09:50;;;;;;;3.37;2.63;;;16.00;99.90;;;;;;5099540;28;21100;-82
2022/08/30 06:12:17;;;;;;;3.40;3.00;;;16.10;99.90;;;;;;5094960;28;20538;-81
2022/08/30 06:14:44;;;;;;;4.00;2.93;;;16.20;99.90;;;;;;5096126;27;20490;-81
2022/08/30 06:17:13;;;;;;;3.20;2.90;;;16.10;99.90;;;;;;5097707;27;21014;-82
2022/08/30 06:19:40;;;;;;;5.23;3.03;;;16.20;99.90;;;;;;5096306;28;20881;-81
2022/08/30 06:22:07;;;;;;;3.37;2.80;;;16.20;99.90;;;;;;5097955;27;20464;-81
2022/08/30 06:24:35;;;;;;;4.00;2.97;;;16.30;99.90;;;;;;5100123;28;20458;-81
2022/08/30 06:27:03;;;;;;;2.80;2.60;;;16.40;99.90;;;;;;5100887;27;20495;-82
2022/08/30 06:29:30;;;;;;;4.77;3.23;;;16.60;99.90;;;;;;5099756;28;21086;-83
2022/08/30 06:31:57;;;;;;;3.73;3.10;;;16.80;99.90;;;;;;5098527;27;20476;-82
2022/08/30 06:34:27;;;;;;;3.03;2.77;;;17.00;99.90;;;;;;5097768;28;20576;-81
2022/08/30 06:36:54;;;;;;;2.10;1.93;;;17.20;99.90;;;;;;5100811;27;21180;-86
2022/08/30 06:39:21;;;;;;;6.77;4.00;;;17.20;99.90;;;;;;5098042;27;20557;-81
2022/08/30 06:41:48;;;;;;;3.97;3.57;;;17.50;99.90;;;;;;5100108;28;20462;-82
2022/08/30 06:44:15;;;;;;;2.83;2.63;;;17.50;99.90;;;;;;5100318;28;20470;-82
2022/08/30 06:46:42;;;;;;;2.93;2.73;;;17.60;99.90;;;;;;5098904;28;20465;-81
2022/08/30 06:49:09;;;;;;;5.23;3.20;;;17.70;99.90;;;;;;5099312;28;20519;-81
2022/08/30 06:51:39;;;;;;;3.83;2.80;;;17.70;99.90;;;;;;5110244;28;20448;-81
2022/08/30 06:54:08;;;;;;;3.50;2.63;;;17.70;99.90;;;;;;5108049;28;20483;-80
2022/08/30 06:56:35;;;;;;;4.70;3.10;;;17.70;99.90;;;;;;5104563;28;20470;-80
2022/08/30 06:59:02;;;;;;;11.13;2.83;;;17.80;99.90;;;;;;5107746;28;21135;-85
2022/08/30 07:01:30;;;;;;;3.83;2.60;;;18.00;99.90;;;;;;5105623;28;20488;-81
2022/08/30 07:03:57;;;;;;;5.00;2.57;;;18.10;99.90;;;;;;5100860;27;20472;-81
2022/08/30 07:06:25;;;;;;;3.40;2.93;;;18.30;99.90;;;;;;5104235;27;20511;-81
2022/08/30 07:08:54;;;;;;;3.73;3.37;;;18.50;99.90;;;;;;5102236;27;20481;-84
2022/08/30 07:11:29;;;;;;;3.33;2.53;;;18.30;99.90;;;;;;5099384;27;20554;-83
2022/08/30 07:13:57;;;;;;;4.43;2.67;;;18.50;99.90;;;;;;5098108;27;21671;-84
2022/08/30 07:16:24;;;;;;;3.37;2.60;;;18.30;99.90;;;;;;5095539;27;20601;-81
2022/08/30 07:18:53;;;;;;;3.47;3.13;;;18.40;99.90;;;;;;5094434;28;20527;-81
2022/08/30 07:21:23;;;;;;;2.20;2.00;;;18.40;99.90;;;;;;5099330;27;20537;-81
2022/08/30 07:23:50;;;;;;;3.17;2.87;;;18.80;99.90;;;;;;5092092;28;21143;-83
2022/08/30 07:26:22;;;;;;;4.73;3.30;;;18.90;99.90;;;;;;5094436;28;20526;-82
2022/08/30 07:28:49;;;;;;;4.33;3.60;;;18.90;99.90;;;;;;5091253;28;21063;-82
2022/08/30 07:31:18;;;;;;;3.53;3.13;;;18.70;99.90;;;;;;5093422;28;20955;-81
2022/08/30 07:33:46;;;;;;;4.03;3.70;;;18.80;99.90;;;;;;5097025;28;20955;-82
2022/08/30 07:36:14;;;;;;;3.83;2.80;;;19.00;99.90;;;;;;5091977;28;20479;-82
2022/08/30 07:38:41;;;;;;;3.63;3.27;;;19.10;99.90;;;;;;5090157;28;20463;-83
2022/08/30 07:41:08;;;;;;;4.80;4.40;;;19.10;99.90;;;;;;5091751;28;20460;-81
2022/08/30 07:43:37;;;;;;;3.07;2.70;;;19.20;99.90;;;;;;5090495;28;20610;-81
2022/08/30 07:46:06;;;;;;;3.10;2.80;;;19.20;99.90;;;;;;5092524;28;20540;-83
2022/08/30 07:48:34;;;;;;;3.67;2.77;;;19.10;99.90;;;;;;5093186;28;20477;-82
2022/08/30 07:51:03;;;;;;;3.17;2.60;;;19.40;99.90;;;;;;5090555;28;20520;-82
2022/08/30 07:53:30;;;;;;;2.87;2.67;;;19.60;99.90;;;;;;5091439;28;20470;-85
2022/08/30 07:55:58;;;;;;;3.00;2.70;;;19.90;99.90;;;;;;5089114;27;20529;-86
2022/08/30 07:58:25;;;;;;;5.87;3.23;;;20.10;99.90;;;;;;5087780;28;20478;-83
2022/08/30 08:00:53;;;;;;;4.10;3.13;;;20.30;99.90;;;;;;5095320;28;20880;-83
2022/08/30 08:03:20;;;;;;;3.07;2.63;;;20.30;99.90;;;;;;5095761;28;20477;-85
2022/08/30 08:05:48;;;;;;;2.77;2.50;;;20.50;99.90;;;;;;5093292;28;20572;-82
2022/08/30 08:08:15;;;;;;;2.87;2.67;;;20.50;99.90;;;;;;5099768;28;20549;-82
2022/08/30 08:10:42;;;;;;;3.83;2.83;;;20.30;99.90;;;;;;5093635;28;20470;-82
2022/08/30 08:13:10;;;;;;;2.83;2.63;;;20.30;99.90;;;;;;5093491;28;20490;-82
2022/08/30 08:15:37;;;;;;;3.60;2.50;;;20.20;99.90;;;;;;5094615;28;21027;-83
2022/08/30 08:18:06;;;;;;;2.63;2.40;;;20.50;99.90;;;;;;5095010;28;20959;-82
2022/08/30 08:20:34;;;;;;;2.33;2.03;;;20.90;99.90;;;;;;5095381;28;20463;-83
2022/08/30 08:23:01;;;;;;;2.67;2.17;;;21.10;99.90;;;;;;5088430;28;20492;-80
2022/08/30 08:25:28;;;;;;;3.07;2.40;;;21.20;99.90;;;;;;5100172;28;21185;-84
2022/08/30 08:27:56;;;;;;;2.80;2.60;;;21.30;99.90;;;;;;5096161;28;20836;-82
2022/08/30 08:30:23;;;;;;;6.50;2.50;;;21.30;99.90;;;;;;5095463;28;21239;-81
2022/08/30 08:32:51;;;;;;;3.13;2.50;;;21.40;99.90;;;;;;5100089;28;20468;-80
2022/08/30 08:35:19;;;;;;;2.40;2.30;;;21.50;99.90;;;;;;5098260;27;20472;-81
2022/08/30 08:37:46;;;;;;;2.30;2.10;;;21.80;99.90;;;;;;5095053;27;20837;-80
2022/08/30 08:40:17;;;;;;;2.87;2.20;;;21.90;99.90;;;;;;5096790;27;20501;-80
2022/08/30 08:43:05;;;;;;;3.20;2.30;;;22.00;99.90;;;;;;5103125;27;20552;-82
2022/08/30 08:45:50;;;;;;;4.73;2.10;;;21.30;99.90;;;;;;5097839;27;20467;-85
2022/08/30 08:48:29;;;;;;;1.43;1.20;;;21.50;99.90;;;;;;5099338;28;20516;-85
2022/08/30 08:53:45;;;;;;;2.20;1.53;;;21.90;99.90;;;;;;5116433;27;20879;-82
2022/08/30 08:56:15;;;;;;;3.40;2.37;;;22.00;99.90;;;;;;5094373;28;20497;-82
2022/08/30 08:58:45;;;;;;;3.47;1.87;;;22.10;99.90;;;;;;5101168;27;21059;-82
2022/08/30 09:01:15;;;;;;;1.50;1.40;;;22.20;99.90;;;;;;5107843;27;20461;-83
2022/08/30 09:03:42;;;;;;;2.10;1.57;;;22.30;99.90;;;;;;5107415;27;20464;-83
2022/08/30 09:06:27;;;;;;;1.93;1.60;;;22.60;99.90;;;;;;5109334;27;20458;-82
2022/08/30 09:08:54;;;;;;;1.53;1.43;;;22.60;99.90;;;;;;5089744;28;21011;-82
2022/08/30 09:11:25;;;;;;;1.87;1.37;;;22.60;99.90;;;;;;5093661;28;20469;-81
2022/08/30 09:13:53;;;;;;;2.20;1.83;;;22.60;99.90;;;;;;5103557;28;20462;-83
2022/08/30 09:16:46;;;;;;;1.77;1.67;;;22.70;99.90;;;;;;5101631;27;20485;-82
2022/08/30 09:19:48;;;;;;;2.03;1.20;;;22.90;99.90;;;;;;5097968;27;20480;-84
2022/08/30 09:22:24;;;;;;;2.43;1.30;;;22.90;99.90;;;;;;5109682;27;20495;-84
2022/08/30 09:24:53;;;;;;;3.70;2.30;;;23.00;99.90;;;;;;5110325;27;20823;-83
2022/08/30 09:27:24;;;;;;;1.50;1.33;;;23.00;99.90;;;;;;5109116;27;20486;-84
2022/08/30 09:30:01;;;;;;;2.93;1.83;;;23.00;99.90;;;;;;5093795;28;20470;-83
2022/08/30 09:32:41;;;;;;;2.87;1.73;;;23.20;99.90;;;;;;5103433;27;20462;-84
2022/08/30 09:35:12;;;;;;;1.53;1.43;;;23.30;99.90;;;;;;5094267;27;20513;-83
2022/08/30 09:37:48;;;;;;;5.90;2.00;;;23.20;99.90;;;;;;5093735;27;20466;-83
2022/08/30 09:40:22;;;;;;;1.93;1.73;;;23.30;99.90;;;;;;5095822;27;20462;-85
2022/08/30 09:43:03;;;;;;;5.53;2.00;;;23.60;99.90;;;;;;5100040;27;20950;-83
2022/08/30 09:45:34;;;;;;;1.73;1.63;;;23.40;99.90;;;;;;5103466;27;20465;-87
2022/08/30 09:48:29;;;;;;;3.87;1.90;;;23.30;99.90;;;;;;5113798;27;20916;-85
2022/08/30 09:51:13;;;;;;;3.33;3.20;;;23.60;99.90;;;;;;5110558;27;20462;-84
2022/08/30 09:53:51;;;;;;;2.93;1.83;;;23.80;99.90;;;;;;5120376;27;20452;-84
2022/08/30 09:56:24;;;;;;;1.73;1.63;;;23.60;99.90;;;;;;5113999;27;20535;-85
2022/08/30 09:59:03;;;;;;;3.37;1.43;;;23.50;99.90;;;;;;5109674;28;20461;-87
2022/08/30 10:01:35;;;;;;;1.60;1.50;;;23.60;99.90;;;;;;5105020;27;20451;-83
2022/08/30 10:04:12;;;;;;;1.33;1.23;;;23.60;99.90;;;;;;5101639;27;20466;-84
2022/08/30 10:06:46;;;;;;;1.30;1.20;;;23.80;99.90;;;;;;5101848;27;20462;-84
2022/08/30 10:09:25;;;;;;;1.40;1.13;;;24.00;99.90;;;;;;5101619;28;20497;-86
2022/08/30 10:11:58;;;;;;;4.33;1.20;;;24.20;99.90;;;;;;5098901;27;20457;-83
2022/08/30 10:14:50;;;;;;;1.77;1.43;;;24.00;99.90;;;;;;5103782;27;20879;-86
2022/08/30 10:17:31;;;;;;;2.03;1.67;;;23.80;99.90;;;;;;5105530;27;20545;-86
2022/08/30 10:20:09;;;;;;;1.80;1.70;;;23.90;99.90;;;;;;5106638;27;20462;-84
2022/08/30 10:22:40;;;;;;;1.77;1.67;;;24.00;99.90;;;;;;5105402;27;20470;-83
2022/08/30 10:25:16;;;;;;;4.00;1.80;;;24.40;99.90;;;;;;5099358;28;20502;-86
2022/08/30 10:27:48;;;;;;;3.77;1.73;;;24.20;99.90;;;;;;5108973;27;20452;-86
2022/08/30 10:30:17;;;;;;;2.23;1.97;;;24.30;99.90;;;;;;5097865;27;20554;-83
2022/08/30 10:32:50;;;;;;;1.93;1.83;;;24.10;99.90;;;;;;5103215;28;20511;-84
2022/08/30 10:35:21;;;;;;;1.63;1.23;;;24.20;99.90;;;;;;5100131;27;20486;-87
2022/08/30 10:37:52;;;;;;;1.80;1.30;;;24.20;99.90;;;;;;5104036;27;20961;-82
2022/08/30 10:43:21;;;;;;;2.03;1.60;;;24.30;99.90;;;;;;5104105;27;20461;-89
2022/08/30 10:45:52;;;;;;;1.53;1.30;;;24.50;99.90;;;;;;5102189;27;20561;-84
2022/08/30 10:48:25;;;;;;;2.33;1.73;;;24.60;99.90;;;;;;5105031;27;20552;-88
2022/08/30 10:50:56;;;;;;;2.73;1.60;;;24.70;99.90;;;;;;5101537;27;20458;-85
2022/08/30 10:53:30;;;;;;;1.30;1.20;;;25.00;99.90;;;;;;5099544;27;20542;-86
2022/08/30 10:56:03;;;;;;;1.30;1.10;;;25.00;99.90;;;;;;5105692;27;20478;-84
2022/08/30 10:58:31;;;;;;;1.47;1.37;;;25.30;99.90;;;;;;5103100;27;20812;-85
2022/08/30 11:01:19;;;;;;;1.30;1.20;;;25.50;99.30;;;;;;5097778;28;20487;-83
2022/08/30 11:04:18;;;;;;;1.20;1.10;;;25.50;99.90;;;;;;5102709;27;20462;-83
2022/08/30 11:06:55;;;;;;;1.80;1.63;;;25.30;98.60;;;;;;5099353;27;20564;-83
2022/08/30 11:09:46;;;;;;;1.57;1.10;;;25.20;99.20;;;;;;5101653;28;20834;-83
2022/08/30 11:12:31;;;;;;;1.60;1.30;;;25.10;99.80;;;;;;5094707;28;20473;-83
2022/08/30 11:15:00;;;;;;;1.53;1.43;;;25.40;99.00;;;;;;5098678;27;20463;-84
2022/08/30 11:17:31;;;;;;;1.30;1.20;;;25.40;98.60;;;;;;5101599;27;20538;-82
2022/08/30 11:20:01;;;;;;;1.40;1.27;;;25.40;99.90;;;;;;5099863;27;20462;-82
2022/08/30 11:22:31;;;;;;;1.83;1.10;;;25.30;98.80;;;;;;5101622;27;21041;-79
2022/08/30 11:25:01;;;;;;;2.17;1.83;;;25.20;98.90;;;;;;5099500;28;20450;-81
2022/08/30 11:27:50;;;;;;;1.20;1.10;;;25.00;98.80;;;;;;5122154;27;20484;-85
2022/08/30 11:30:46;;;;;;;2.43;1.70;;;25.10;99.20;;;;;;5108749;27;20453;-83
2022/08/30 11:33:41;;;;;;;9.83;1.93;;;25.20;98.60;;;;;;5099996;28;20461;-82
2022/08/30 11:36:08;;;;;;;1.80;1.70;;;25.10;98.50;;;;;;5099729;27;20482;-82
2022/08/30 11:38:59;;;;;;;2.17;1.90;;;25.40;99.90;;;;;;5101890;27;20462;-83
2022/08/30 11:41:33;;;;;;;1.33;1.23;;;25.40;98.00;;;;;;5098450;28;20511;-82
2022/08/30 11:44:27;;;;;;;2.53;1.20;;;25.40;97.00;;;;;;5098060;28;20461;-82
2022/08/30 11:46:57;;;;;;;3.50;1.40;;;25.50;98.60;;;;;;5093475;28;20519;-83
2022/08/30 11:49:49;;;;;;;2.83;1.57;;;25.50;96.50;;;;;;5096611;28;20552;-82
2022/08/30 11:52:38;;;;;;;1.50;0.90;;;25.60;97.30;;;;;;5089564;28;21472;-82
2022/08/30 11:55:37;;;;;;;1.43;1.33;;;25.60;96.00;;;;;;5088541;28;20458;-80
2022/08/30 11:58:24;;;;;;;3.37;1.07;;;25.60;96.40;;;;;;5097424;27;20923;-85
2022/08/30 12:01:14;;;;;;;1.83;1.33;;;25.60;94.60;;;;;;5091244;28;20514;-82
2022/08/30 12:03:42;;;;;;;1.50;1.00;;;25.40;95.50;;;;;;5102707;28;20441;-82
2022/08/30 12:06:11;;;;;;;1.93;1.40;;;25.60;96.20;;;;;;5092810;27;21090;-82
2022/08/30 12:08:56;;;;;;;1.93;1.23;;;25.50;95.70;;;;;;5085386;28;20442;-84
2022/08/30 12:11:58;;;;;;;1.53;1.20;;;25.70;96.10;;;;;;5097536;28;20458;-82
2022/08/30 12:14:47;;;;;;;1.20;1.10;;;26.10;94.20;;;;;;5061815;28;20460;-82
2022/08/30 12:20:21;;;;;;;1.73;1.47;;;26.40;92.60;;;;;;5090122;28;20469;-86
2022/08/30 12:22:49;;;;;;;1.37;1.27;;;26.30;92.50;;;;;;5098838;28;20450;-81
2022/08/30 12:25:21;;;;;;;5.30;1.17;;;26.50;90.90;;;;;;5091683;28;20459;-81
2022/08/30 12:27:49;;;;;;;2.10;0.97;;;26.60;91.30;;;;;;5104898;28;20466;-81
2022/08/30 12:30:26;;;;;;;4.00;1.00;;;26.40;90.10;;;;;;5097018;28;20527;-86
2022/08/30 12:32:57;;;;;;;1.67;1.03;;;26.40;91.20;;;;;;5105379;28;20553;-82
2022/08/30 12:35:28;;;;;;;1.37;1.27;;;26.30;91.70;;;;;;5101086;28;20459;-81
2022/08/30 12:37:59;;;;;;;1.27;1.17;;;26.20;92.30;;;;;;5102482;28;20565;-81
2022/08/30 12:40:26;;;;;;;1.13;1.03;;;26.00;92.30;;;;;;5101884;28;20471;-87
2022/08/30 12:42:55;;;;;;;1.53;1.43;;;26.00;90.80;;;;;;5097429;28;20457;-84
2022/08/30 12:45:26;;;;;;;0.90;0.90;;;26.00;91.90;;;;;;5110998;28;20464;-83
2022/08/30 12:47:59;;;;;;;1.30;1.10;;;26.00;90.20;;;;;;5105752;28;20548;-82
2022/08/30 12:50:30;;;;;;;3.70;1.37;;;26.10;91.10;;;;;;5103272;28;20802;-83
2022/08/30 12:53:01;;;;;;;2.70;1.30;;;26.10;90.50;;;;;;5093793;28;21230;-82
2022/08/30 12:55:30;;;;;;;1.10;1.00;;;26.20;90.20;;;;;;5100742;28;20514;-82
2022/08/30 12:58:00;;;;;;;2.20;1.30;;;26.20;90.50;;;;;;5100080;27;20573;-82
2022/08/30 13:00:30;;;;;;;2.13;1.00;;;26.10;85.40;;;;;;5104757;28;20458;-82
2022/08/30 13:03:42;;;;;;;2.30;1.23;;;26.20;89.90;;;;;;5096655;28;20454;-84
2022/08/30 13:06:09;;;;;;;1.50;1.40;;;26.50;90.30;;;;;;5103749;28;20470;-82
2022/08/30 13:08:50;;;;;;;2.37;1.13;;;26.80;86.30;;;;;;5101756;28;20461;-84
2022/08/30 13:11:26;;;;;;;1.17;1.07;;;26.90;84.70;;;;;;5100523;28;21053;-85
2022/08/30 13:13:57;;;;;;;0.90;0.90;;;26.70;86.40;;;;;;5096684;28;21025;-85
2022/08/30 13:16:26;;;;;;;3.53;1.10;;;26.50;83.50;;;;;;5102602;28;20482;-85
2022/08/30 13:19:16;;;;;;;1.20;0.87;;;26.50;84.70;;;;;;5109546;27;20476;-82